createdAt,value
2023-05-24T00:00:24.431Z,15.70
2023-05-24T00:02:51.748Z,15.60
2023-05-24T00:05:19.091Z,15.60
2023-05-24T00:07:46.271Z,15.50
2023-05-24T00:10:14.107Z,15.50
2023-05-24T00:12:41.558Z,15.50
2023-05-24T00:15:09.189Z,15.50
2023-05-24T00:17:41.640Z,15.50
2023-05-24T00:20:12.704Z,15.40
2023-05-24T00:22:40.882Z,15.40
2023-05-24T00:25:09.308Z,15.30
2023-05-24T00:27:37.861Z,15.30
2023-05-24T00:30:06.659Z,15.30
2023-05-24T00:32:34.382Z,15.30
2023-05-24T00:35:01.592Z,15.30
2023-05-24T00:37:29.787Z,15.30
2023-05-24T00:39:57.019Z,15.20
2023-05-24T00:42:24.194Z,15.20
2023-05-24T00:44:51.495Z,15.20
2023-05-24T00:47:18.757Z,15.20
2023-05-24T00:49:46.626Z,15.10
2023-05-24T00:52:14.266Z,15.10
2023-05-24T00:54:41.503Z,15.10
2023-05-24T00:57:08.849Z,15.10
2023-05-24T00:59:36.929Z,15.00
2023-05-24T01:02:04.337Z,15.00
2023-05-24T01:04:32.796Z,15.00
2023-05-24T01:07:05.991Z,14.90
2023-05-24T01:09:35.296Z,14.80
2023-05-24T01:12:24.870Z,14.80
2023-05-24T01:15:31.020Z,14.70
2023-05-24T01:18:17.035Z,14.70
2023-05-24T01:20:46.708Z,14.50
2023-05-24T01:23:43.201Z,14.40
2023-05-24T01:26:28.708Z,14.30
2023-05-24T01:28:56.436Z,14.20
2023-05-24T01:31:24.213Z,14.20
2023-05-24T01:33:51.408Z,14.10
2023-05-24T01:36:18.686Z,14.10
2023-05-24T01:38:46.679Z,14.00
2023-05-24T01:41:27.464Z,13.90
2023-05-24T01:44:24.233Z,13.90
2023-05-24T01:47:01.893Z,13.80
2023-05-24T01:49:35.050Z,13.80
2023-05-24T01:52:11.332Z,13.70
2023-05-24T01:54:43.182Z,13.70
2023-05-24T01:57:11.457Z,13.70
2023-05-24T01:59:42.256Z,13.70
2023-05-24T02:02:10.998Z,13.60
2023-05-24T02:04:38.430Z,13.60
2023-05-24T02:07:05.711Z,13.60
2023-05-24T02:09:33.539Z,13.60
2023-05-24T02:12:00.765Z,13.50
2023-05-24T02:14:27.961Z,13.50
2023-05-24T02:16:59.385Z,13.40
2023-05-24T02:19:27.121Z,13.30
2023-05-24T02:21:54.766Z,13.30
2023-05-24T02:24:22.103Z,13.20
2023-05-24T02:26:49.289Z,13.10
2023-05-24T02:29:16.740Z,13.10
2023-05-24T02:31:43.989Z,13.00
2023-05-24T02:34:11.318Z,12.90
2023-05-24T02:36:38.548Z,12.90
2023-05-24T02:39:06.418Z,12.80
2023-05-24T02:41:34.286Z,12.80
2023-05-24T02:44:01.446Z,12.70
2023-05-24T02:46:28.839Z,12.70
2023-05-24T02:48:56.144Z,12.60
2023-05-24T02:51:23.499Z,12.60
2023-05-24T02:53:51.330Z,12.50
2023-05-24T02:56:18.463Z,12.50
2023-05-24T02:58:46.360Z,12.40
2023-05-24T03:01:13.842Z,12.40
2023-05-24T03:03:41.980Z,12.30
2023-05-24T03:06:09.646Z,12.20
2023-05-24T03:08:37.723Z,12.10
2023-05-24T03:11:05.220Z,12.10
2023-05-24T03:13:32.466Z,12.00
2023-05-24T03:15:59.772Z,11.90
2023-05-24T03:18:27.039Z,11.90
2023-05-24T03:20:54.424Z,11.90
2023-05-24T03:23:21.563Z,11.80
2023-05-24T03:25:48.909Z,11.80
2023-05-24T03:28:16.162Z,11.80
2023-05-24T03:30:43.738Z,11.80
2023-05-24T03:33:11.297Z,11.80
2023-05-24T03:35:38.499Z,11.70
2023-05-24T03:38:05.650Z,11.70
2023-05-24T03:40:33.962Z,11.60
2023-05-24T03:43:02.389Z,11.60
2023-05-24T03:45:39.081Z,11.60
2023-05-24T03:48:07.444Z,11.60
2023-05-24T03:50:34.970Z,11.60
2023-05-24T03:53:02.196Z,11.50
2023-05-24T03:55:29.381Z,11.50
2023-05-24T03:57:56.547Z,11.50
2023-05-24T04:00:23.816Z,11.50
2023-05-24T04:02:51.153Z,11.50
2023-05-24T04:05:18.638Z,11.50
2023-05-24T04:07:46.670Z,11.50
2023-05-24T04:10:14.182Z,11.50
2023-05-24T04:12:42.356Z,11.50
2023-05-24T04:15:10.303Z,11.50
2023-05-24T04:17:37.685Z,11.50
2023-05-24T04:20:06.281Z,11.50
2023-05-24T04:22:33.521Z,11.50
2023-05-24T04:25:00.718Z,11.50
2023-05-24T04:27:27.949Z,11.50
2023-05-24T04:29:55.752Z,11.50
2023-05-24T04:32:23.776Z,11.50
2023-05-24T04:34:52.799Z,11.60
2023-05-24T04:37:20.278Z,11.60
2023-05-24T04:39:47.579Z,11.60
2023-05-24T04:42:15.590Z,11.60
2023-05-24T04:44:43.025Z,11.60
2023-05-24T04:47:10.949Z,11.60
2023-05-24T04:49:38.220Z,11.60
2023-05-24T04:52:06.067Z,11.60
2023-05-24T04:54:34.196Z,11.60
2023-05-24T04:57:01.474Z,11.60
2023-05-24T04:59:29.048Z,11.50
2023-05-24T05:01:56.736Z,11.60
2023-05-24T05:04:23.968Z,11.60
2023-05-24T05:06:51.523Z,11.60
2023-05-24T05:09:19.323Z,11.60
2023-05-24T05:11:49.526Z,11.70
2023-05-24T05:14:17.149Z,11.60
2023-05-24T05:16:46.027Z,11.60
2023-05-24T05:19:13.302Z,11.60
2023-05-24T05:21:40.560Z,11.70
2023-05-24T05:24:07.924Z,11.70
2023-05-24T05:26:35.918Z,11.70
2023-05-24T05:29:03.964Z,11.70
2023-05-24T05:31:31.429Z,11.70
2023-05-24T05:33:58.606Z,11.80
2023-05-24T05:36:25.948Z,11.80
2023-05-24T05:38:53.188Z,11.90
2023-05-24T05:41:20.552Z,11.90
2023-05-24T05:43:47.697Z,12.00
2023-05-24T05:46:15.849Z,12.00
2023-05-24T05:48:45.068Z,12.20
2023-05-24T05:51:13.824Z,12.20
2023-05-24T05:53:41.195Z,12.10
2023-05-24T05:56:08.474Z,12.20
2023-05-24T05:58:35.718Z,12.20
2023-05-24T06:01:02.958Z,12.10
2023-05-24T06:03:30.463Z,12.10
2023-05-24T06:05:57.944Z,12.20
2023-05-24T06:08:25.099Z,12.10
2023-05-24T06:10:53.032Z,12.10
2023-05-24T06:13:20.421Z,12.20
2023-05-24T06:15:47.740Z,12.10
2023-05-24T06:18:16.019Z,12.10
2023-05-24T06:20:44.989Z,12.10
2023-05-24T06:23:12.564Z,12.10
2023-05-24T06:25:40.736Z,12.00
2023-05-24T06:28:08.038Z,12.00
2023-05-24T06:30:35.575Z,12.00
2023-05-24T06:33:02.949Z,12.00
2023-05-24T06:35:30.168Z,12.00
2023-05-24T06:37:58.308Z,12.00
2023-05-24T06:40:25.682Z,12.00
2023-05-24T06:42:53.124Z,12.00
2023-05-24T06:45:21.208Z,12.00
2023-05-24T06:47:48.495Z,12.00
2023-05-24T06:50:15.776Z,12.00
2023-05-24T06:52:42.952Z,11.90
2023-05-24T06:55:10.914Z,12.00
2023-05-24T06:57:38.286Z,12.00
2023-05-24T07:00:10.172Z,12.10
2023-05-24T07:02:37.670Z,12.10
2023-05-24T07:05:06.572Z,12.10
2023-05-24T07:07:33.919Z,12.10
2023-05-24T07:10:01.325Z,12.00
2023-05-24T07:12:28.563Z,12.10
2023-05-24T07:14:56.507Z,12.10
2023-05-24T07:17:23.779Z,12.20
2023-05-24T07:19:51.770Z,12.20
2023-05-24T07:22:19.090Z,12.20
2023-05-24T07:24:46.857Z,12.10
2023-05-24T07:27:14.015Z,12.00
2023-05-24T07:29:41.525Z,11.90
2023-05-24T07:32:09.345Z,11.80
2023-05-24T07:34:36.599Z,11.90
2023-05-24T07:37:03.898Z,12.00
2023-05-24T07:39:31.334Z,12.20
2023-05-24T07:41:58.621Z,12.30
2023-05-24T07:44:26.121Z,12.40
2023-05-24T07:46:53.402Z,12.40
2023-05-24T07:49:20.544Z,12.30
2023-05-24T07:51:48.088Z,12.20
2023-05-24T07:54:15.736Z,12.30
2023-05-24T07:56:43.263Z,12.30
2023-05-24T07:59:10.975Z,12.40
2023-05-24T08:01:38.285Z,12.50
2023-05-24T08:04:06.056Z,12.90
2023-05-24T08:06:33.620Z,13.30
2023-05-24T08:09:01.877Z,13.50
2023-05-24T08:11:29.066Z,13.70
2023-05-24T08:13:56.323Z,13.80
2023-05-24T08:16:24.631Z,13.90
2023-05-24T08:18:54.746Z,14.00
2023-05-24T08:21:22.778Z,14.10
2023-05-24T08:23:50.058Z,14.20
2023-05-24T08:26:19.588Z,14.20
2023-05-24T08:28:46.738Z,14.00
2023-05-24T08:31:14.066Z,13.90
2023-05-24T08:33:42.097Z,14.10
2023-05-24T08:36:09.516Z,14.00
2023-05-24T08:38:36.808Z,14.00
2023-05-24T08:41:07.746Z,14.00
2023-05-24T08:43:35.821Z,14.00
2023-05-24T08:46:04.287Z,13.80
2023-05-24T08:48:32.480Z,13.70
2023-05-24T08:51:00.644Z,13.60
2023-05-24T08:53:27.955Z,13.50
2023-05-24T08:55:56.478Z,13.40
2023-05-24T08:58:23.746Z,13.30
2023-05-24T09:00:51.352Z,13.30
2023-05-24T09:03:19.616Z,13.20
2023-05-24T09:05:47.149Z,13.20
2023-05-24T09:08:18.415Z,13.20
2023-05-24T09:10:54.834Z,13.10
2023-05-24T09:13:25.173Z,13.20
2023-05-24T09:15:52.999Z,13.10
2023-05-24T09:18:20.360Z,13.20
2023-05-24T09:20:47.862Z,13.20
2023-05-24T09:23:15.869Z,13.50
2023-05-24T09:25:45.453Z,13.70
2023-05-24T09:28:18.020Z,13.80
2023-05-24T09:30:46.588Z,13.90
2023-05-24T09:33:13.868Z,13.80
2023-05-24T09:35:45.046Z,13.80
2023-05-24T09:38:19.275Z,13.70
2023-05-24T09:40:47.133Z,13.60
2023-05-24T09:43:19.678Z,13.70
2023-05-24T09:45:47.638Z,13.70
2023-05-24T09:48:16.835Z,13.70
2023-05-24T09:50:47.771Z,13.90
2023-05-24T09:53:19.221Z,13.90
2023-05-24T09:55:46.702Z,14.00
2023-05-24T09:58:14.142Z,14.00
2023-05-24T10:00:42.706Z,14.10
2023-05-24T10:03:12.967Z,14.10
2023-05-24T10:05:44.811Z,14.20
2023-05-24T10:08:12.765Z,14.20
2023-05-24T10:10:40.678Z,14.10
2023-05-24T10:13:08.192Z,13.90
2023-05-24T10:15:35.353Z,14.00
2023-05-24T10:18:10.604Z,14.10
2023-05-24T10:20:42.168Z,14.30
2023-05-24T10:23:10.847Z,14.40
2023-05-24T10:25:45.005Z,14.40
2023-05-24T10:28:14.302Z,14.60
2023-05-24T10:31:10.289Z,14.60
2023-05-24T10:33:39.046Z,14.70
2023-05-24T10:36:10.119Z,14.60
2023-05-24T10:38:41.043Z,14.50
2023-05-24T10:41:09.212Z,14.50
2023-05-24T10:43:38.394Z,14.70
2023-05-24T10:46:09.334Z,14.70
2023-05-24T10:48:39.480Z,14.80
2023-05-24T10:51:41.496Z,14.80
2023-05-24T10:54:19.153Z,14.80
2023-05-24T10:56:51.011Z,14.70
2023-05-24T10:59:28.837Z,14.80
2023-05-24T11:02:01.215Z,14.90
2023-05-24T11:04:37.046Z,15.00
2023-05-24T11:07:06.136Z,15.00
2023-05-24T11:09:33.976Z,14.80
2023-05-24T11:12:09.219Z,14.80
2023-05-24T11:14:40.255Z,14.90
2023-05-24T11:17:08.536Z,14.90
2023-05-24T11:19:46.732Z,14.90
2023-05-24T11:22:18.083Z,14.80
2023-05-24T11:24:45.799Z,14.80
2023-05-24T11:27:14.508Z,14.70
2023-05-24T11:29:43.536Z,14.60
2023-05-24T11:32:22.110Z,14.70
2023-05-24T11:34:51.409Z,14.70
2023-05-24T11:37:19.066Z,14.60
2023-05-24T11:39:52.815Z,14.50
2023-05-24T11:42:22.489Z,14.60
2023-05-24T11:44:50.685Z,14.70
2023-05-24T11:47:21.842Z,14.90
2023-05-24T11:49:52.851Z,15.00
2023-05-24T11:52:20.537Z,15.10
2023-05-24T11:54:48.016Z,15.20
2023-05-24T11:57:16.460Z,15.20
2023-05-24T11:59:43.704Z,15.30
2023-05-24T12:02:11.140Z,15.40
2023-05-24T12:04:38.402Z,15.50
2023-05-24T12:07:10.978Z,15.40
2023-05-24T12:09:38.775Z,15.30
2023-05-24T12:12:07.563Z,15.40
2023-05-24T12:14:35.731Z,15.40
2023-05-24T12:17:02.956Z,15.40
2023-05-24T12:19:35.145Z,15.30
2023-05-24T12:22:07.837Z,15.30
2023-05-24T12:24:35.898Z,15.20
2023-05-24T12:27:10.416Z,15.00
2023-05-24T12:29:41.767Z,15.10
2023-05-24T12:32:15.253Z,15.10
2023-05-24T12:34:44.718Z,15.20
2023-05-24T12:37:13.323Z,15.20
2023-05-24T12:39:43.433Z,15.30
2023-05-24T12:42:14.834Z,15.40
2023-05-24T12:44:42.713Z,15.50
2023-05-24T12:47:10.577Z,15.50
2023-05-24T12:49:38.062Z,15.50
2023-05-24T12:52:06.805Z,15.50
2023-05-24T12:54:34.526Z,15.50
2023-05-24T12:57:03.714Z,15.50
2023-05-24T12:59:32.714Z,15.50
2023-05-24T13:02:00.062Z,15.60
2023-05-24T13:04:28.312Z,15.60
2023-05-24T13:06:55.916Z,15.80
2023-05-24T13:09:24.103Z,15.80
2023-05-24T13:11:52.945Z,16.00
2023-05-24T13:14:20.468Z,16.00
2023-05-24T13:16:48.419Z,16.10
2023-05-24T13:19:16.796Z,16.10
2023-05-24T13:21:44.485Z,16.10
2023-05-24T13:24:16.243Z,16.20
2023-05-24T13:26:44.582Z,16.20
2023-05-24T13:31:42.879Z,16.10
2023-05-24T13:34:11.466Z,16.10
2023-05-24T13:36:39.128Z,16.10
2023-05-24T13:41:38.091Z,16.00
2023-05-24T13:44:05.516Z,16.00
2023-05-24T13:46:36.831Z,15.90
2023-05-24T13:49:04.911Z,15.80
2023-05-24T13:51:33.415Z,15.90
2023-05-24T13:54:03.920Z,16.00
2023-05-24T13:56:33.460Z,16.10
2023-05-24T13:59:03.951Z,16.30
2023-05-24T14:01:32.386Z,16.40
2023-05-24T14:04:01.849Z,16.40
2023-05-24T14:06:29.248Z,16.50
2023-05-24T14:08:56.690Z,16.40
2023-05-24T14:11:24.908Z,16.30
2023-05-24T14:14:32.848Z,16.50
2023-05-24T14:16:40.728Z,16.50
2023-05-24T14:19:08.139Z,16.70
2023-05-24T14:21:36.688Z,16.80
2023-05-24T14:24:04.662Z,16.80
2023-05-24T14:26:32.918Z,16.90
2023-05-24T14:29:00.229Z,16.80
2023-05-24T14:31:27.906Z,16.70
2023-05-24T14:33:58.136Z,16.70
2023-05-24T14:36:25.613Z,16.70
2023-05-24T14:38:52.891Z,16.80
2023-05-24T14:41:20.075Z,16.80
2023-05-24T14:43:47.354Z,16.90
2023-05-24T14:46:14.731Z,17.00
2023-05-24T14:48:42.045Z,17.00
2023-05-24T14:51:09.680Z,17.00
2023-05-24T14:53:37.156Z,17.00
2023-05-24T14:56:06.547Z,16.90
2023-05-24T14:58:35.873Z,16.90
2023-05-24T15:01:03.620Z,16.80
2023-05-24T15:03:31.678Z,16.90
2023-05-24T15:05:59.520Z,16.80
2023-05-24T15:08:27.117Z,16.80
2023-05-24T15:10:55.328Z,16.90
2023-05-24T15:13:28.062Z,17.00
2023-05-24T15:15:57.025Z,17.00
2023-05-24T15:18:25.811Z,17.00
2023-05-24T15:20:53.215Z,16.90
2023-05-24T15:23:21.410Z,16.80
2023-05-24T15:25:48.928Z,16.90
2023-05-24T15:28:18.604Z,17.10
2023-05-24T15:30:47.329Z,17.10
2023-05-24T15:33:17.398Z,16.90
2023-05-24T15:35:45.069Z,16.80
2023-05-24T15:38:12.574Z,16.70
2023-05-24T15:40:42.302Z,16.70
2023-05-24T15:43:09.904Z,16.70
2023-05-24T15:45:37.152Z,16.70
2023-05-24T15:48:07.199Z,16.60
2023-05-24T15:50:54.064Z,16.60
2023-05-24T15:53:21.922Z,16.60
2023-05-24T15:55:49.343Z,16.60
2023-05-24T15:58:16.700Z,16.50
2023-05-24T16:00:44.316Z,16.50
2023-05-24T16:03:15.900Z,16.50
2023-05-24T16:05:43.565Z,16.50
2023-05-24T16:08:11.263Z,16.50
2023-05-24T16:10:38.545Z,16.50
2023-05-24T16:13:06.238Z,16.60
2023-05-24T16:15:36.424Z,16.60
2023-05-24T16:18:08.263Z,16.60
2023-05-24T16:20:36.932Z,16.50
2023-05-24T16:23:04.685Z,16.40
2023-05-24T16:25:31.961Z,16.40
2023-05-24T16:28:01.087Z,16.30
2023-05-24T16:30:28.339Z,16.30
2023-05-24T16:32:55.702Z,16.40
2023-05-24T16:35:22.976Z,16.40
2023-05-24T16:37:52.098Z,16.40
2023-05-24T16:40:19.616Z,16.30
2023-05-24T16:42:46.960Z,16.20
2023-05-24T16:45:14.135Z,16.20
2023-05-24T16:47:42.070Z,16.20
2023-05-24T16:50:15.543Z,16.10
2023-05-24T16:52:46.129Z,16.10
2023-05-24T16:55:14.454Z,16.10
2023-05-24T16:57:42.177Z,16.10
2023-05-24T17:00:10.650Z,16.10
2023-05-24T17:02:38.008Z,16.00
2023-05-24T17:05:05.779Z,16.10
2023-05-24T17:07:33.612Z,16.00
2023-05-24T17:10:00.830Z,16.00
2023-05-24T17:12:29.879Z,16.10
2023-05-24T17:14:57.133Z,16.10
2023-05-24T17:17:24.414Z,16.10
2023-05-24T17:19:51.833Z,16.00
2023-05-24T17:22:19.285Z,16.00
2023-05-24T17:24:46.888Z,15.90
2023-05-24T17:27:14.185Z,15.90
2023-05-24T17:29:41.857Z,15.80
2023-05-24T17:32:09.155Z,15.80
2023-05-24T17:34:36.468Z,15.70
2023-05-24T17:37:03.778Z,15.60
2023-05-24T17:39:31.289Z,15.60
2023-05-24T17:41:58.491Z,15.50
2023-05-24T17:44:25.921Z,15.50
2023-05-24T17:46:53.827Z,15.40
2023-05-24T17:49:21.027Z,15.30
2023-05-24T17:51:48.283Z,15.20
2023-05-24T17:54:15.679Z,15.20
2023-05-24T17:56:42.827Z,15.20
2023-05-24T17:59:10.269Z,15.10
2023-05-24T18:01:37.939Z,15.00
2023-05-24T18:04:07.629Z,14.90
2023-05-24T18:06:35.806Z,14.90
2023-05-24T18:09:03.184Z,14.80
2023-05-24T18:11:30.501Z,14.80
2023-05-24T18:14:01.049Z,14.70
2023-05-24T18:16:28.366Z,14.70
2023-05-24T18:18:56.441Z,14.60
2023-05-24T18:21:23.659Z,14.50
2023-05-24T18:23:50.947Z,14.40
2023-05-24T18:26:18.331Z,14.40
2023-05-24T18:28:45.696Z,14.30
2023-05-24T18:31:15.164Z,14.20
2023-05-24T18:33:43.262Z,14.20
2023-05-24T18:36:12.992Z,14.10
2023-05-24T18:38:40.779Z,14.00
2023-05-24T18:41:12.305Z,14.00
2023-05-24T18:43:39.996Z,13.90
2023-05-24T18:46:07.381Z,13.80
2023-05-24T18:48:34.863Z,13.80
2023-05-24T18:51:02.419Z,13.70
2023-05-24T18:53:29.674Z,13.70
2023-05-24T18:55:57.215Z,13.70
2023-05-24T18:58:24.408Z,13.60
2023-05-24T19:00:52.507Z,13.50
2023-05-24T19:03:21.464Z,13.50
2023-05-24T19:05:49.897Z,13.40
2023-05-24T19:08:18.097Z,13.40
2023-05-24T19:10:45.431Z,13.30
2023-05-24T19:13:13.561Z,13.20
2023-05-24T19:15:41.581Z,13.20
2023-05-24T19:18:09.127Z,13.10
2023-05-24T19:20:36.454Z,13.10
2023-05-24T19:23:04.621Z,13.00
2023-05-24T19:25:31.925Z,12.90
2023-05-24T19:28:00.467Z,12.80
2023-05-24T19:30:28.739Z,12.70
2023-05-24T19:32:56.237Z,12.60
2023-05-24T19:35:23.866Z,12.60
2023-05-24T19:37:51.278Z,12.50
2023-05-24T19:40:18.677Z,12.50
2023-05-24T19:42:46.926Z,12.40
2023-05-24T19:45:14.202Z,12.40
2023-05-24T19:47:41.574Z,12.30
2023-05-24T19:50:11.012Z,12.30
2023-05-24T19:52:38.241Z,12.30
2023-05-24T19:55:06.130Z,12.30
2023-05-24T19:57:33.627Z,12.30
2023-05-24T20:00:02.124Z,12.30
2023-05-24T20:02:29.390Z,12.20
2023-05-24T20:04:56.606Z,12.10
2023-05-24T20:07:23.937Z,12.00
2023-05-24T20:09:51.092Z,12.00
2023-05-24T20:12:18.548Z,11.90
2023-05-24T20:14:45.866Z,11.90
2023-05-24T20:17:13.080Z,11.80
2023-05-24T20:19:40.228Z,11.80
2023-05-24T20:22:07.706Z,11.80
2023-05-24T20:24:34.953Z,11.70
2023-05-24T20:27:02.590Z,11.70
2023-05-24T20:29:29.836Z,11.70
2023-05-24T20:31:57.438Z,11.60
2023-05-24T20:34:24.737Z,11.60
2023-05-24T20:36:52.122Z,11.50
2023-05-24T20:39:19.248Z,11.50
2023-05-24T20:41:46.638Z,11.50
2023-05-24T20:44:13.794Z,11.40
2023-05-24T20:46:41.683Z,11.30
2023-05-24T20:49:09.062Z,11.30
2023-05-24T20:51:36.702Z,11.30
2023-05-24T20:54:04.941Z,11.20
2023-05-24T20:56:32.939Z,11.20
2023-05-24T20:59:02.321Z,11.20
2023-05-24T21:01:29.527Z,11.10
2023-05-24T21:03:57.221Z,11.10
2023-05-24T21:06:25.055Z,11.10
2023-05-24T21:08:52.349Z,11.00
2023-05-24T21:11:19.626Z,11.00
2023-05-24T21:13:46.831Z,11.00
2023-05-24T21:16:14.116Z,10.90
2023-05-24T21:18:41.932Z,10.90
2023-05-24T21:21:09.220Z,10.90
2023-05-24T21:23:36.483Z,10.80
2023-05-24T21:26:03.841Z,10.70
2023-05-24T21:28:31.196Z,10.70
2023-05-24T21:30:58.686Z,10.60
2023-05-24T21:33:26.119Z,10.60
2023-05-24T21:35:53.475Z,10.60
2023-05-24T21:38:21.715Z,10.60
2023-05-24T21:40:49.088Z,10.60
2023-05-24T21:43:16.345Z,10.60
2023-05-24T21:45:43.889Z,10.50
2023-05-24T21:48:11.386Z,10.40
2023-05-24T21:50:38.986Z,10.40
2023-05-24T21:53:06.247Z,10.30
2023-05-24T21:55:33.553Z,10.30
2023-05-24T21:58:00.849Z,10.20
2023-05-24T22:00:28.204Z,10.20
2023-05-24T22:02:55.685Z,10.10
2023-05-24T22:05:24.892Z,10.10
2023-05-24T22:07:53.454Z,10.10
2023-05-24T22:10:20.919Z,10.10
2023-05-24T22:12:48.665Z,10.10
2023-05-24T22:15:15.925Z,10.10
2023-05-24T22:17:43.270Z,10.10
2023-05-24T22:20:11.795Z,10.10
2023-05-24T22:22:48.560Z,10.00
2023-05-24T22:25:19.991Z,10.00
2023-05-24T22:27:51.319Z,9.90
2023-05-24T22:30:18.625Z,9.90
2023-05-24T22:32:45.797Z,9.90
2023-05-24T22:35:13.077Z,9.80
2023-05-24T22:37:40.384Z,9.80
2023-05-24T22:40:08.298Z,9.80
2023-05-24T22:42:35.763Z,9.80
2023-05-24T22:45:03.007Z,9.80
2023-05-24T22:47:33.696Z,9.80
2023-05-24T22:50:02.300Z,9.70
2023-05-24T22:52:30.563Z,9.70
2023-05-24T22:54:57.872Z,9.70
2023-05-24T22:57:25.202Z,9.60
2023-05-24T22:59:52.461Z,9.60
2023-05-24T23:02:19.686Z,9.60
2023-05-24T23:04:47.677Z,9.60
2023-05-24T23:07:15.672Z,9.60
2023-05-24T23:09:44.044Z,9.60
2023-05-24T23:12:11.293Z,9.60
2023-05-24T23:14:41.795Z,9.60
2023-05-24T23:17:15.687Z,9.60
2023-05-24T23:19:43.879Z,9.60
2023-05-24T23:22:12.802Z,9.60
2023-05-24T23:24:43.150Z,9.60
2023-05-24T23:27:11.134Z,9.60
2023-05-24T23:29:39.264Z,9.60
2023-05-24T23:32:08.189Z,9.60
2023-05-24T23:34:35.490Z,9.60
2023-05-24T23:37:03.962Z,9.50
2023-05-24T23:39:31.585Z,9.50
2023-05-24T23:41:59.024Z,9.50
2023-05-24T23:44:26.215Z,9.50
2023-05-24T23:46:54.320Z,9.50
2023-05-24T23:49:21.586Z,9.50
2023-05-24T23:51:48.810Z,9.40
2023-05-24T23:54:16.181Z,9.40
2023-05-24T23:56:43.568Z,9.40
2023-05-24T23:59:10.983Z,9.40
